Terminal Aerodrome Forecast
Issued by NWS Jacksonville, FL

Home | Current Version | Previous Version | Text Only | Print | Product List | Glossary On
Versions: 1 2 3 4 5 6 7 8 9 10 11 12 13 14 15 16 17 18 19 20 21 22 23
000
FTUS42 KJAX 271905 AAB
TAFSSI
TAF AMD
KSSI 271905Z 2719/2818 VRB06KT P6SM VCTS SCT025 BKN050CB
      TEMPO 2719/2721 VRB10G20KT 3SM TSRA BKN025CB
     FM272200 08009KT P6SM SCT035 BKN050
     FM280100 09006KT P6SM SCT060 BKN250
     FM281500 07015G21KT P6SM SCT100 BKN250=

USA.gov is the U.S. government's official web portal to all federal, state and local government web resources and services.